sensor_id;sensor_type;location;lat;lon;timestamp;P1;durP1;ratioP1;P2;durP2;ratioP2
37787;SDS011;23627;53.302;-6.362;2024-03-06T00:00:03;7.10;;;1.30;;
37787;SDS011;23627;53.302;-6.362;2024-03-06T00:02:30;8.05;;;1.13;;
37787;SDS011;23627;53.302;-6.362;2024-03-06T00:04:56;7.03;;;1.42;;
37787;SDS011;23627;53.302;-6.362;2024-03-06T00:07:21;9.30;;;1.40;;
37787;SDS011;23627;53.302;-6.362;2024-03-06T00:09:47;4.80;;;1.35;;
37787;SDS011;23627;53.302;-6.362;2024-03-06T00:12:13;6.35;;;1.27;;
37787;SDS011;23627;53.302;-6.362;2024-03-06T00:14:39;7.53;;;1.15;;
37787;SDS011;23627;53.302;-6.362;2024-03-06T00:17:04;5.65;;;1.13;;
37787;SDS011;23627;53.302;-6.362;2024-03-06T00:19:31;6.10;;;1.25;;
37787;SDS011;23627;53.302;-6.362;2024-03-06T00:21:57;7.38;;;1.20;;
37787;SDS011;23627;53.302;-6.362;2024-03-06T00:24:24;4.75;;;1.30;;
37787;SDS011;23627;53.302;-6.362;2024-03-06T00:26:50;5.60;;;1.23;;
37787;SDS011;23627;53.302;-6.362;2024-03-06T00:29:16;6.28;;;1.05;;
37787;SDS011;23627;53.302;-6.362;2024-03-06T00:31:43;4.78;;;1.05;;
37787;SDS011;23627;53.302;-6.362;2024-03-06T00:34:10;5.63;;;1.65;;
37787;SDS011;23627;53.302;-6.362;2024-03-06T00:36:40;8.38;;;1.38;;
37787;SDS011;23627;53.302;-6.362;2024-03-06T00:39:06;6.72;;;1.38;;
37787;SDS011;23627;53.302;-6.362;2024-03-06T00:41:33;8.20;;;1.58;;
37787;SDS011;23627;53.302;-6.362;2024-03-06T00:44:00;4.65;;;1.00;;
37787;SDS011;23627;53.302;-6.362;2024-03-06T00:46:26;5.07;;;1.20;;
37787;SDS011;23627;53.302;-6.362;2024-03-06T00:48:51;4.05;;;0.80;;
37787;SDS011;23627;53.302;-6.362;2024-03-06T00:51:17;6.68;;;0.90;;
37787;SDS011;23627;53.302;-6.362;2024-03-06T00:53:44;5.43;;;1.30;;
37787;SDS011;23627;53.302;-6.362;2024-03-06T00:56:10;7.70;;;1.23;;
37787;SDS011;23627;53.302;-6.362;2024-03-06T00:58:36;6.82;;;1.00;;
37787;SDS011;23627;53.302;-6.362;2024-03-06T01:01:01;3.70;;;0.80;;
37787;SDS011;23627;53.302;-6.362;2024-03-06T01:03:27;6.38;;;1.00;;
37787;SDS011;23627;53.302;-6.362;2024-03-06T01:05:53;5.88;;;1.17;;
37787;SDS011;23627;53.302;-6.362;2024-03-06T01:08:21;5.40;;;1.05;;
37787;SDS011;23627;53.302;-6.362;2024-03-06T01:10:49;4.28;;;1.00;;
37787;SDS011;23627;53.302;-6.362;2024-03-06T01:13:15;7.55;;;1.10;;
37787;SDS011;23627;53.302;-6.362;2024-03-06T01:15:41;4.68;;;0.88;;
37787;SDS011;23627;53.302;-6.362;2024-03-06T01:18:07;7.63;;;1.20;;
37787;SDS011;23627;53.302;-6.362;2024-03-06T01:20:34;6.40;;;1.20;;
37787;SDS011;23627;53.302;-6.362;2024-03-06T01:22:59;4.20;;;1.00;;
37787;SDS011;23627;53.302;-6.362;2024-03-06T01:25:26;4.93;;;0.90;;
37787;SDS011;23627;53.302;-6.362;2024-03-06T01:27:51;5.97;;;0.95;;
37787;SDS011;23627;53.302;-6.362;2024-03-06T01:30:17;6.05;;;1.13;;
37787;SDS011;23627;53.302;-6.362;2024-03-06T01:32:43;3.75;;;0.90;;
37787;SDS011;23627;53.302;-6.362;2024-03-06T01:35:09;5.93;;;1.00;;
37787;SDS011;23627;53.302;-6.362;2024-03-06T01:37:34;4.80;;;0.90;;
37787;SDS011;23627;53.302;-6.362;2024-03-06T01:40:00;3.10;;;0.65;;
37787;SDS011;23627;53.302;-6.362;2024-03-06T01:42:29;4.30;;;0.80;;
37787;SDS011;23627;53.302;-6.362;2024-03-06T01:44:54;6.15;;;0.95;;
37787;SDS011;23627;53.302;-6.362;2024-03-06T01:47:20;5.22;;;0.88;;
37787;SDS011;23627;53.302;-6.362;2024-03-06T01:49:46;7.85;;;0.90;;
37787;SDS011;23627;53.302;-6.362;2024-03-06T01:52:13;5.25;;;0.82;;
37787;SDS011;23627;53.302;-6.362;2024-03-06T01:54:41;3.10;;;0.90;;
37787;SDS011;23627;53.302;-6.362;2024-03-06T01:57:08;4.25;;;1.00;;
37787;SDS011;23627;53.302;-6.362;2024-03-06T01:59:35;5.38;;;1.17;;
37787;SDS011;23627;53.302;-6.362;2024-03-06T02:02:02;3.80;;;0.73;;
37787;SDS011;23627;53.302;-6.362;2024-03-06T02:04:28;4.75;;;0.77;;
37787;SDS011;23627;53.302;-6.362;2024-03-06T02:06:54;4.65;;;0.73;;
37787;SDS011;23627;53.302;-6.362;2024-03-06T02:09:20;5.75;;;0.95;;
37787;SDS011;23627;53.302;-6.362;2024-03-06T02:11:46;3.42;;;0.80;;
37787;SDS011;23627;53.302;-6.362;2024-03-06T02:14:12;4.20;;;0.80;;
37787;SDS011;23627;53.302;-6.362;2024-03-06T02:16:38;4.13;;;0.70;;
37787;SDS011;23627;53.302;-6.362;2024-03-06T02:19:04;6.60;;;1.00;;
37787;SDS011;23627;53.302;-6.362;2024-03-06T02:21:30;4.85;;;0.70;;
37787;SDS011;23627;53.302;-6.362;2024-03-06T02:23:56;2.97;;;0.70;;
37787;SDS011;23627;53.302;-6.362;2024-03-06T02:26:22;4.38;;;1.00;;
37787;SDS011;23627;53.302;-6.362;2024-03-06T02:28:48;4.93;;;0.98;;
37787;SDS011;23627;53.302;-6.362;2024-03-06T02:31:19;4.35;;;1.10;;
37787;SDS011;23627;53.302;-6.362;2024-03-06T02:33:45;8.85;;;1.30;;
37787;SDS011;23627;53.302;-6.362;2024-03-06T02:36:17;5.57;;;1.10;;
37787;SDS011;23627;53.302;-6.362;2024-03-06T02:38:44;4.97;;;0.88;;
37787;SDS011;23627;53.302;-6.362;2024-03-06T02:41:10;7.07;;;1.50;;
37787;SDS011;23627;53.302;-6.362;2024-03-06T02:43:37;5.65;;;1.30;;
37787;SDS011;23627;53.302;-6.362;2024-03-06T02:46:03;6.25;;;1.42;;
37787;SDS011;23627;53.302;-6.362;2024-03-06T02:48:29;5.15;;;1.60;;
37787;SDS011;23627;53.302;-6.362;2024-03-06T02:50:55;6.50;;;1.60;;
37787;SDS011;23627;53.302;-6.362;2024-03-06T02:53:21;6.45;;;1.42;;
37787;SDS011;23627;53.302;-6.362;2024-03-06T02:55:47;4.68;;;1.42;;
37787;SDS011;23627;53.302;-6.362;2024-03-06T02:58:14;8.07;;;1.48;;
37787;SDS011;23627;53.302;-6.362;2024-03-06T03:00:41;7.20;;;1.48;;
37787;SDS011;23627;53.302;-6.362;2024-03-06T03:03:08;7.22;;;1.90;;
37787;SDS011;23627;53.302;-6.362;2024-03-06T03:05:34;5.55;;;1.40;;
37787;SDS011;23627;53.302;-6.362;2024-03-06T03:08:00;7.13;;;1.67;;
37787;SDS011;23627;53.302;-6.362;2024-03-06T03:10:26;6.07;;;1.63;;
37787;SDS011;23627;53.302;-6.362;2024-03-06T03:12:52;6.25;;;1.48;;
37787;SDS011;23627;53.302;-6.362;2024-03-06T03:15:19;6.80;;;1.63;;
37787;SDS011;23627;53.302;-6.362;2024-03-06T03:17:45;5.13;;;1.38;;
37787;SDS011;23627;53.302;-6.362;2024-03-06T03:20:12;4.70;;;1.38;;
37787;SDS011;23627;53.302;-6.362;2024-03-06T03:22:42;6.20;;;1.60;;
37787;SDS011;23627;53.302;-6.362;2024-03-06T03:25:12;4.97;;;1.13;;
37787;SDS011;23627;53.302;-6.362;2024-03-06T03:27:39;7.78;;;1.70;;
37787;SDS011;23627;53.302;-6.362;2024-03-06T03:30:08;7.22;;;1.80;;
37787;SDS011;23627;53.302;-6.362;2024-03-06T03:32:35;6.28;;;1.58;;
37787;SDS011;23627;53.302;-6.362;2024-03-06T03:35:01;7.93;;;1.42;;
37787;SDS011;23627;53.302;-6.362;2024-03-06T03:37:28;7.30;;;1.45;;
37787;SDS011;23627;53.302;-6.362;2024-03-06T03:39:54;5.30;;;1.25;;
37787;SDS011;23627;53.302;-6.362;2024-03-06T03:42:20;6.30;;;1.52;;
37787;SDS011;23627;53.302;-6.362;2024-03-06T03:44:46;8.00;;;1.35;;
37787;SDS011;23627;53.302;-6.362;2024-03-06T03:47:12;6.72;;;1.75;;
37787;SDS011;23627;53.302;-6.362;2024-03-06T03:49:38;5.75;;;1.60;;
37787;SDS011;23627;53.302;-6.362;2024-03-06T03:52:03;4.97;;;1.23;;
37787;SDS011;23627;53.302;-6.362;2024-03-06T03:54:29;5.63;;;1.55;;
37787;SDS011;23627;53.302;-6.362;2024-03-06T03:56:55;8.45;;;1.58;;
37787;SDS011;23627;53.302;-6.362;2024-03-06T03:59:21;8.57;;;1.98;;
37787;SDS011;23627;53.302;-6.362;2024-03-06T04:01:46;8.10;;;1.70;;
37787;SDS011;23627;53.302;-6.362;2024-03-06T04:04:13;6.85;;;1.77;;
37787;SDS011;23627;53.302;-6.362;2024-03-06T04:06:38;6.70;;;1.67;;
37787;SDS011;23627;53.302;-6.362;2024-03-06T04:09:04;7.70;;;1.63;;
37787;SDS011;23627;53.302;-6.362;2024-03-06T04:11:30;7.53;;;1.70;;
37787;SDS011;23627;53.302;-6.362;2024-03-06T04:13:59;9.45;;;1.70;;
37787;SDS011;23627;53.302;-6.362;2024-03-06T04:16:24;11.40;;;1.80;;
37787;SDS011;23627;53.302;-6.362;2024-03-06T04:18:51;7.78;;;2.10;;
37787;SDS011;23627;53.302;-6.362;2024-03-06T04:21:16;4.90;;;1.80;;
37787;SDS011;23627;53.302;-6.362;2024-03-06T04:23:43;8.60;;;2.03;;
37787;SDS011;23627;53.302;-6.362;2024-03-06T04:26:09;7.47;;;1.88;;
37787;SDS011;23627;53.302;-6.362;2024-03-06T04:28:34;8.15;;;2.33;;
37787;SDS011;23627;53.302;-6.362;2024-03-06T04:31:00;5.35;;;1.80;;
37787;SDS011;23627;53.302;-6.362;2024-03-06T04:33:26;7.85;;;1.65;;
37787;SDS011;23627;53.302;-6.362;2024-03-06T04:35:51;7.88;;;1.70;;
37787;SDS011;23627;53.302;-6.362;2024-03-06T04:38:17;8.10;;;1.65;;
37787;SDS011;23627;53.302;-6.362;2024-03-06T04:40:43;6.25;;;1.63;;
37787;SDS011;23627;53.302;-6.362;2024-03-06T04:43:10;7.90;;;1.70;;
37787;SDS011;23627;53.302;-6.362;2024-03-06T04:45:36;8.80;;;1.48;;
37787;SDS011;23627;53.302;-6.362;2024-03-06T04:48:01;7.22;;;1.70;;
37787;SDS011;23627;53.302;-6.362;2024-03-06T04:50:27;6.78;;;1.40;;
37787;SDS011;23627;53.302;-6.362;2024-03-06T04:52:53;7.25;;;1.70;;
37787;SDS011;23627;53.302;-6.362;2024-03-06T04:55:19;9.50;;;1.60;;
37787;SDS011;23627;53.302;-6.362;2024-03-06T04:57:47;6.28;;;1.33;;
37787;SDS011;23627;53.302;-6.362;2024-03-06T05:00:14;6.30;;;1.38;;
37787;SDS011;23627;53.302;-6.362;2024-03-06T05:02:40;7.90;;;1.52;;
37787;SDS011;23627;53.302;-6.362;2024-03-06T05:05:07;6.20;;;1.60;;
37787;SDS011;23627;53.302;-6.362;2024-03-06T05:07:36;4.80;;;1.27;;
37787;SDS011;23627;53.302;-6.362;2024-03-06T05:10:01;8.02;;;1.83;;
37787;SDS011;23627;53.302;-6.362;2024-03-06T05:12:27;8.30;;;1.58;;
37787;SDS011;23627;53.302;-6.362;2024-03-06T05:14:53;7.25;;;1.60;;
37787;SDS011;23627;53.302;-6.362;2024-03-06T05:17:20;7.97;;;1.48;;
37787;SDS011;23627;53.302;-6.362;2024-03-06T05:19:46;6.50;;;1.42;;
37787;SDS011;23627;53.302;-6.362;2024-03-06T05:22:14;6.18;;;1.40;;
37787;SDS011;23627;53.302;-6.362;2024-03-06T05:24:41;6.60;;;1.60;;
37787;SDS011;23627;53.302;-6.362;2024-03-06T05:27:10;7.78;;;1.40;;
37787;SDS011;23627;53.302;-6.362;2024-03-06T05:29:42;7.43;;;1.43;;
37787;SDS011;23627;53.302;-6.362;2024-03-06T05:32:08;5.05;;;1.15;;
37787;SDS011;23627;53.302;-6.362;2024-03-06T05:34:34;6.60;;;1.40;;
37787;SDS011;23627;53.302;-6.362;2024-03-06T05:37:00;6.05;;;1.60;;
37787;SDS011;23627;53.302;-6.362;2024-03-06T05:39:29;8.85;;;1.30;;
37787;SDS011;23627;53.302;-6.362;2024-03-06T05:42:02;7.47;;;1.70;;
37787;SDS011;23627;53.302;-6.362;2024-03-06T05:44:29;8.88;;;1.70;;
37787;SDS011;23627;53.302;-6.362;2024-03-06T05:46:57;8.65;;;1.58;;
37787;SDS011;23627;53.302;-6.362;2024-03-06T05:49:23;7.93;;;1.42;;
37787;SDS011;23627;53.302;-6.362;2024-03-06T05:51:50;9.75;;;2.15;;
37787;SDS011;23627;53.302;-6.362;2024-03-06T05:54:16;7.75;;;1.48;;
37787;SDS011;23627;53.302;-6.362;2024-03-06T05:56:42;6.95;;;1.33;;
37787;SDS011;23627;53.302;-6.362;2024-03-06T05:59:07;5.70;;;1.33;;
37787;SDS011;23627;53.302;-6.362;2024-03-06T06:01:34;8.18;;;1.60;;
37787;SDS011;23627;53.302;-6.362;2024-03-06T06:04:00;7.65;;;1.55;;
37787;SDS011;23627;53.302;-6.362;2024-03-06T06:06:27;9.00;;;1.60;;
37787;SDS011;23627;53.302;-6.362;2024-03-06T06:08:52;7.75;;;1.30;;
37787;SDS011;23627;53.302;-6.362;2024-03-06T06:11:18;8.65;;;1.38;;
37787;SDS011;23627;53.302;-6.362;2024-03-06T06:13:44;5.07;;;1.23;;
37787;SDS011;23627;53.302;-6.362;2024-03-06T06:16:10;10.65;;;1.98;;
37787;SDS011;23627;53.302;-6.362;2024-03-06T06:18:37;8.70;;;2.03;;
37787;SDS011;23627;53.302;-6.362;2024-03-06T06:21:07;7.97;;;1.60;;
37787;SDS011;23627;53.302;-6.362;2024-03-06T06:23:33;4.32;;;1.63;;
37787;SDS011;23627;53.302;-6.362;2024-03-06T06:26:05;8.23;;;1.50;;
37787;SDS011;23627;53.302;-6.362;2024-03-06T06:28:30;10.43;;;1.67;;
37787;SDS011;23627;53.302;-6.362;2024-03-06T06:30:56;4.88;;;1.30;;
37787;SDS011;23627;53.302;-6.362;2024-03-06T06:33:22;5.35;;;1.30;;
37787;SDS011;23627;53.302;-6.362;2024-03-06T06:35:48;8.43;;;1.38;;
37787;SDS011;23627;53.302;-6.362;2024-03-06T06:38:14;6.70;;;1.50;;
37787;SDS011;23627;53.302;-6.362;2024-03-06T06:40:39;7.75;;;1.40;;
37787;SDS011;23627;53.302;-6.362;2024-03-06T06:43:08;8.45;;;1.30;;
37787;SDS011;23627;53.302;-6.362;2024-03-06T06:45:34;7.38;;;1.70;;
37787;SDS011;23627;53.302;-6.362;2024-03-06T06:47:59;8.45;;;1.85;;
37787;SDS011;23627;53.302;-6.362;2024-03-06T06:50:25;5.18;;;1.30;;
37787;SDS011;23627;53.302;-6.362;2024-03-06T06:52:52;8.90;;;1.50;;
37787;SDS011;23627;53.302;-6.362;2024-03-06T06:55:18;5.35;;;1.50;;
37787;SDS011;23627;53.302;-6.362;2024-03-06T06:57:47;6.22;;;1.30;;
37787;SDS011;23627;53.302;-6.362;2024-03-06T07:00:14;9.95;;;1.50;;
37787;SDS011;23627;53.302;-6.362;2024-03-06T07:02:43;7.40;;;1.23;;
37787;SDS011;23627;53.302;-6.362;2024-03-06T07:05:10;6.63;;;1.33;;
37787;SDS011;23627;53.302;-6.362;2024-03-06T07:07:36;6.85;;;1.52;;
37787;SDS011;23627;53.302;-6.362;2024-03-06T07:10:03;10.05;;;1.90;;
37787;SDS011;23627;53.302;-6.362;2024-03-06T07:12:29;7.97;;;1.52;;
37787;SDS011;23627;53.302;-6.362;2024-03-06T07:14:55;8.27;;;1.55;;
37787;SDS011;23627;53.302;-6.362;2024-03-06T07:17:21;5.65;;;1.27;;
37787;SDS011;23627;53.302;-6.362;2024-03-06T07:19:47;7.32;;;1.40;;
37787;SDS011;23627;53.302;-6.362;2024-03-06T07:22:13;7.93;;;1.75;;
37787;SDS011;23627;53.302;-6.362;2024-03-06T07:24:39;7.85;;;1.67;;
37787;SDS011;23627;53.302;-6.362;2024-03-06T07:27:06;5.03;;;1.23;;
37787;SDS011;23627;53.302;-6.362;2024-03-06T07:29:34;6.47;;;1.30;;
37787;SDS011;23627;53.302;-6.362;2024-03-06T07:32:00;7.88;;;1.60;;
37787;SDS011;23627;53.302;-6.362;2024-03-06T07:34:26;8.32;;;1.38;;
37787;SDS011;23627;53.302;-6.362;2024-03-06T07:36:52;6.85;;;1.20;;
37787;SDS011;23627;53.302;-6.362;2024-03-06T07:39:21;8.02;;;1.30;;
37787;SDS011;23627;53.302;-6.362;2024-03-06T07:41:47;7.78;;;1.73;;
37787;SDS011;23627;53.302;-6.362;2024-03-06T07:44:14;7.72;;;1.40;;
37787;SDS011;23627;53.302;-6.362;2024-03-06T07:46:40;5.68;;;1.27;;
37787;SDS011;23627;53.302;-6.362;2024-03-06T07:49:06;6.68;;;1.20;;
37787;SDS011;23627;53.302;-6.362;2024-03-06T07:51:32;7.65;;;1.67;;
37787;SDS011;23627;53.302;-6.362;2024-03-06T07:53:57;5.43;;;1.42;;
37787;SDS011;23627;53.302;-6.362;2024-03-06T07:56:27;4.47;;;1.17;;
37787;SDS011;23627;53.302;-6.362;2024-03-06T07:58:53;5.53;;;1.30;;
37787;SDS011;23627;53.302;-6.362;2024-03-06T08:01:20;6.55;;;1.10;;
37787;SDS011;23627;53.302;-6.362;2024-03-06T08:03:48;5.43;;;1.17;;
37787;SDS011;23627;53.302;-6.362;2024-03-06T08:06:14;5.03;;;1.55;;
37787;SDS011;23627;53.302;-6.362;2024-03-06T08:08:41;5.00;;;1.35;;
37787;SDS011;23627;53.302;-6.362;2024-03-06T08:11:09;9.25;;;1.30;;
37787;SDS011;23627;53.302;-6.362;2024-03-06T08:13:59;5.30;;;1.05;;
37787;SDS011;23627;53.302;-6.362;2024-03-06T08:16:27;6.30;;;1.25;;
37787;SDS011;23627;53.302;-6.362;2024-03-06T08:18:53;6.18;;;1.38;;
37787;SDS011;23627;53.302;-6.362;2024-03-06T08:21:20;7.93;;;1.20;;
37787;SDS011;23627;53.302;-6.362;2024-03-06T08:23:46;5.57;;;1.08;;
37787;SDS011;23627;53.302;-6.362;2024-03-06T08:26:14;6.60;;;1.23;;
37787;SDS011;23627;53.302;-6.362;2024-03-06T08:28:40;7.50;;;1.38;;
37787;SDS011;23627;53.302;-6.362;2024-03-06T08:31:06;4.80;;;0.98;;
37787;SDS011;23627;53.302;-6.362;2024-03-06T08:33:33;5.60;;;1.20;;
37787;SDS011;23627;53.302;-6.362;2024-03-06T08:35:59;7.68;;;1.08;;
37787;SDS011;23627;53.302;-6.362;2024-03-06T08:38:25;8.55;;;1.17;;
37787;SDS011;23627;53.302;-6.362;2024-03-06T08:40:50;8.13;;;1.30;;
37787;SDS011;23627;53.302;-6.362;2024-03-06T08:43:17;4.85;;;1.10;;
37787;SDS011;23627;53.302;-6.362;2024-03-06T08:45:44;7.38;;;1.30;;
37787;SDS011;23627;53.302;-6.362;2024-03-06T08:48:10;6.82;;;1.08;;
37787;SDS011;23627;53.302;-6.362;2024-03-06T08:50:36;6.05;;;1.13;;
37787;SDS011;23627;53.302;-6.362;2024-03-06T08:53:03;4.30;;;1.17;;
37787;SDS011;23627;53.302;-6.362;2024-03-06T08:55:29;7.68;;;1.00;;
37787;SDS011;23627;53.302;-6.362;2024-03-06T08:57:54;4.25;;;0.90;;
37787;SDS011;23627;53.302;-6.362;2024-03-06T09:03:43;5.95;;;1.00;;
37787;SDS011;23627;53.302;-6.362;2024-03-06T09:06:09;7.85;;;1.30;;
37787;SDS011;23627;53.302;-6.362;2024-03-06T09:08:38;8.23;;;1.50;;
37787;SDS011;23627;53.302;-6.362;2024-03-06T09:11:04;4.32;;;0.85;;
37787;SDS011;23627;53.302;-6.362;2024-03-06T09:13:30;5.38;;;0.80;;
37787;SDS011;23627;53.302;-6.362;2024-03-06T09:15:55;6.43;;;0.90;;
37787;SDS011;23627;53.302;-6.362;2024-03-06T09:18:21;5.97;;;1.02;;
37787;SDS011;23627;53.302;-6.362;2024-03-06T09:20:47;7.45;;;1.13;;
37787;SDS011;23627;53.302;-6.362;2024-03-06T09:23:12;5.68;;;1.13;;
37787;SDS011;23627;53.302;-6.362;2024-03-06T09:25:40;6.45;;;0.80;;
37787;SDS011;23627;53.302;-6.362;2024-03-06T09:28:06;6.72;;;1.08;;
37787;SDS011;23627;53.302;-6.362;2024-03-06T09:30:33;6.90;;;1.13;;
37787;SDS011;23627;53.302;-6.362;2024-03-06T09:32:59;5.40;;;0.85;;
37787;SDS011;23627;53.302;-6.362;2024-03-06T09:35:25;6.72;;;1.20;;
37787;SDS011;23627;53.302;-6.362;2024-03-06T09:37:51;7.05;;;1.40;;
37787;SDS011;23627;53.302;-6.362;2024-03-06T09:40:20;7.90;;;1.10;;
37787;SDS011;23627;53.302;-6.362;2024-03-06T09:42:47;4.90;;;0.90;;
37787;SDS011;23627;53.302;-6.362;2024-03-06T09:45:17;4.75;;;1.30;;
37787;SDS011;23627;53.302;-6.362;2024-03-06T09:47:44;5.25;;;1.30;;
37787;SDS011;23627;53.302;-6.362;2024-03-06T09:50:12;5.13;;;1.00;;
37787;SDS011;23627;53.302;-6.362;2024-03-06T09:52:47;6.93;;;1.13;;
37787;SDS011;23627;53.302;-6.362;2024-03-06T09:55:16;4.40;;;1.05;;
37787;SDS011;23627;53.302;-6.362;2024-03-06T09:57:42;4.75;;;0.77;;
37787;SDS011;23627;53.302;-6.362;2024-03-06T10:00:08;6.22;;;0.88;;
37787;SDS011;23627;53.302;-6.362;2024-03-06T10:02:37;6.07;;;1.08;;
37787;SDS011;23627;53.302;-6.362;2024-03-06T10:05:18;4.78;;;1.10;;
37787;SDS011;23627;53.302;-6.362;2024-03-06T10:07:46;5.05;;;0.90;;
37787;SDS011;23627;53.302;-6.362;2024-03-06T10:10:12;4.60;;;0.80;;
37787;SDS011;23627;53.302;-6.362;2024-03-06T10:12:40;5.43;;;0.85;;
37787;SDS011;23627;53.302;-6.362;2024-03-06T10:15:06;6.30;;;1.00;;
37787;SDS011;23627;53.302;-6.362;2024-03-06T10:17:37;5.70;;;0.93;;
37787;SDS011;23627;53.302;-6.362;2024-03-06T10:22:51;4.03;;;1.02;;
37787;SDS011;23627;53.302;-6.362;2024-03-06T10:25:21;5.35;;;1.30;;
37787;SDS011;23627;53.302;-6.362;2024-03-06T10:28:03;7.10;;;1.20;;
37787;SDS011;23627;53.302;-6.362;2024-03-06T10:30:34;5.05;;;1.23;;
37787;SDS011;23627;53.302;-6.362;2024-03-06T10:33:05;6.65;;;1.17;;
37787;SDS011;23627;53.302;-6.362;2024-03-06T10:35:32;6.45;;;1.23;;
37787;SDS011;23627;53.302;-6.362;2024-03-06T10:37:59;6.60;;;1.00;;
37787;SDS011;23627;53.302;-6.362;2024-03-06T10:40:30;5.05;;;0.85;;
37787;SDS011;23627;53.302;-6.362;2024-03-06T10:43:01;5.18;;;0.90;;
37787;SDS011;23627;53.302;-6.362;2024-03-06T10:48:15;4.32;;;0.82;;
37787;SDS011;23627;53.302;-6.362;2024-03-06T10:50:42;5.25;;;1.00;;
37787;SDS011;23627;53.302;-6.362;2024-03-06T10:53:16;3.90;;;0.65;;
37787;SDS011;23627;53.302;-6.362;2024-03-06T10:55:43;5.90;;;1.20;;
37787;SDS011;23627;53.302;-6.362;2024-03-06T10:58:10;5.15;;;1.08;;
37787;SDS011;23627;53.302;-6.362;2024-03-06T11:00:40;5.88;;;0.88;;
37787;SDS011;23627;53.302;-6.362;2024-03-06T11:03:11;5.78;;;0.88;;
37787;SDS011;23627;53.302;-6.362;2024-03-06T11:05:39;5.93;;;1.27;;
37787;SDS011;23627;53.302;-6.362;2024-03-06T11:08:06;4.85;;;1.38;;
37787;SDS011;23627;53.302;-6.362;2024-03-06T11:10:34;6.47;;;0.95;;
37787;SDS011;23627;53.302;-6.362;2024-03-06T11:13:01;7.10;;;1.27;;
37787;SDS011;23627;53.302;-6.362;2024-03-06T11:15:30;7.05;;;1.20;;
37787;SDS011;23627;53.302;-6.362;2024-03-06T11:17:57;4.72;;;0.88;;
37787;SDS011;23627;53.302;-6.362;2024-03-06T11:20:22;5.20;;;0.80;;
37787;SDS011;23627;53.302;-6.362;2024-03-06T11:28:19;5.75;;;1.10;;
37787;SDS011;23627;53.302;-6.362;2024-03-06T11:30:46;6.13;;;1.25;;
37787;SDS011;23627;53.302;-6.362;2024-03-06T11:33:52;4.67;;;1.00;;
37787;SDS011;23627;53.302;-6.362;2024-03-06T11:36:19;5.75;;;0.98;;
37787;SDS011;23627;53.302;-6.362;2024-03-06T11:41:46;3.63;;;0.77;;
37787;SDS011;23627;53.302;-6.362;2024-03-06T11:44:14;7.32;;;1.00;;
37787;SDS011;23627;53.302;-6.362;2024-03-06T11:46:44;8.75;;;1.08;;
37787;SDS011;23627;53.302;-6.362;2024-03-06T11:51:45;4.10;;;1.00;;
37787;SDS011;23627;53.302;-6.362;2024-03-06T11:54:12;4.57;;;0.98;;
37787;SDS011;23627;53.302;-6.362;2024-03-06T11:56:42;4.20;;;0.98;;
37787;SDS011;23627;53.302;-6.362;2024-03-06T11:59:10;5.00;;;0.98;;
37787;SDS011;23627;53.302;-6.362;2024-03-06T12:01:36;3.92;;;1.13;;
37787;SDS011;23627;53.302;-6.362;2024-03-06T12:04:02;5.70;;;1.02;;
37787;SDS011;23627;53.302;-6.362;2024-03-06T12:06:32;5.32;;;1.25;;
37787;SDS011;23627;53.302;-6.362;2024-03-06T12:08:59;5.60;;;1.08;;
37787;SDS011;23627;53.302;-6.362;2024-03-06T12:11:25;4.53;;;0.90;;
37787;SDS011;23627;53.302;-6.362;2024-03-06T12:13:53;3.42;;;0.93;;
37787;SDS011;23627;53.302;-6.362;2024-03-06T12:16:19;4.82;;;1.02;;
37787;SDS011;23627;53.302;-6.362;2024-03-06T12:18:54;4.15;;;0.85;;
37787;SDS011;23627;53.302;-6.362;2024-03-06T12:21:23;6.63;;;1.23;;
37787;SDS011;23627;53.302;-6.362;2024-03-06T12:24:01;4.28;;;0.80;;
37787;SDS011;23627;53.302;-6.362;2024-03-06T12:26:31;5.03;;;1.20;;
37787;SDS011;23627;53.302;-6.362;2024-03-06T12:29:03;3.40;;;0.93;;
37787;SDS011;23627;53.302;-6.362;2024-03-06T12:31:31;3.70;;;0.90;;
37787;SDS011;23627;53.302;-6.362;2024-03-06T12:33:57;6.07;;;1.15;;
37787;SDS011;23627;53.302;-6.362;2024-03-06T12:36:24;5.30;;;1.10;;
37787;SDS011;23627;53.302;-6.362;2024-03-06T12:39:09;6.10;;;1.25;;
37787;SDS011;23627;53.302;-6.362;2024-03-06T12:41:41;6.15;;;1.00;;
37787;SDS011;23627;53.302;-6.362;2024-03-06T12:44:10;6.28;;;0.88;;
37787;SDS011;23627;53.302;-6.362;2024-03-06T12:46:36;7.43;;;1.10;;
37787;SDS011;23627;53.302;-6.362;2024-03-06T12:49:01;5.50;;;1.23;;
37787;SDS011;23627;53.302;-6.362;2024-03-06T12:51:27;6.32;;;1.20;;
37787;SDS011;23627;53.302;-6.362;2024-03-06T12:53:53;6.70;;;1.40;;
37787;SDS011;23627;53.302;-6.362;2024-03-06T12:56:19;4.45;;;1.00;;
37787;SDS011;23627;53.302;-6.362;2024-03-06T12:58:45;7.00;;;1.48;;
37787;SDS011;23627;53.302;-6.362;2024-03-06T13:01:10;8.65;;;1.55;;
37787;SDS011;23627;53.302;-6.362;2024-03-06T13:03:36;4.07;;;1.08;;
37787;SDS011;23627;53.302;-6.362;2024-03-06T13:06:03;5.22;;;1.17;;
37787;SDS011;23627;53.302;-6.362;2024-03-06T13:08:30;5.38;;;1.10;;
37787;SDS011;23627;53.302;-6.362;2024-03-06T13:10:56;4.40;;;1.05;;
37787;SDS011;23627;53.302;-6.362;2024-03-06T13:13:22;4.45;;;0.88;;
37787;SDS011;23627;53.302;-6.362;2024-03-06T13:15:54;5.05;;;0.90;;
37787;SDS011;23627;53.302;-6.362;2024-03-06T13:18:20;6.30;;;1.20;;
37787;SDS011;23627;53.302;-6.362;2024-03-06T13:20:46;5.53;;;1.00;;
37787;SDS011;23627;53.302;-6.362;2024-03-06T13:23:12;5.65;;;1.55;;
37787;SDS011;23627;53.302;-6.362;2024-03-06T13:25:38;4.18;;;0.93;;
37787;SDS011;23627;53.302;-6.362;2024-03-06T13:28:04;3.92;;;0.80;;
37787;SDS011;23627;53.302;-6.362;2024-03-06T13:30:30;5.18;;;1.00;;
37787;SDS011;23627;53.302;-6.362;2024-03-06T13:32:56;6.47;;;0.93;;
37787;SDS011;23627;53.302;-6.362;2024-03-06T13:35:22;6.10;;;1.00;;
37787;SDS011;23627;53.302;-6.362;2024-03-06T13:37:51;4.35;;;1.20;;
37787;SDS011;23627;53.302;-6.362;2024-03-06T13:40:18;5.60;;;0.80;;
37787;SDS011;23627;53.302;-6.362;2024-03-06T13:42:44;5.45;;;1.20;;
37787;SDS011;23627;53.302;-6.362;2024-03-06T13:45:11;4.45;;;0.95;;
37787;SDS011;23627;53.302;-6.362;2024-03-06T13:47:40;6.47;;;1.20;;
37787;SDS011;23627;53.302;-6.362;2024-03-06T13:50:08;6.93;;;1.10;;
37787;SDS011;23627;53.302;-6.362;2024-03-06T13:52:38;5.10;;;1.10;;
37787;SDS011;23627;53.302;-6.362;2024-03-06T13:55:04;4.60;;;1.17;;
37787;SDS011;23627;53.302;-6.362;2024-03-06T13:57:31;5.28;;;0.95;;
37787;SDS011;23627;53.302;-6.362;2024-03-06T14:00:04;6.43;;;1.30;;
37787;SDS011;23627;53.302;-6.362;2024-03-06T14:02:32;7.85;;;1.10;;
37787;SDS011;23627;53.302;-6.362;2024-03-06T14:04:57;5.80;;;1.10;;
37787;SDS011;23627;53.302;-6.362;2024-03-06T14:07:24;5.32;;;1.20;;
37787;SDS011;23627;53.302;-6.362;2024-03-06T14:09:50;7.07;;;1.20;;
37787;SDS011;23627;53.302;-6.362;2024-03-06T14:12:16;4.25;;;1.33;;
37787;SDS011;23627;53.302;-6.362;2024-03-06T14:14:42;5.43;;;0.90;;
37787;SDS011;23627;53.302;-6.362;2024-03-06T14:17:10;5.72;;;1.10;;
37787;SDS011;23627;53.302;-6.362;2024-03-06T14:19:37;4.05;;;0.90;;
37787;SDS011;23627;53.302;-6.362;2024-03-06T14:22:04;3.78;;;1.00;;
37787;SDS011;23627;53.302;-6.362;2024-03-06T14:24:31;6.22;;;1.20;;
37787;SDS011;23627;53.302;-6.362;2024-03-06T14:26:57;6.40;;;1.10;;
37787;SDS011;23627;53.302;-6.362;2024-03-06T14:29:25;7.45;;;1.10;;
37787;SDS011;23627;53.302;-6.362;2024-03-06T14:31:54;6.03;;;1.20;;
37787;SDS011;23627;53.302;-6.362;2024-03-06T14:34:20;5.90;;;1.30;;
37787;SDS011;23627;53.302;-6.362;2024-03-06T14:36:48;4.97;;;1.27;;
37787;SDS011;23627;53.302;-6.362;2024-03-06T14:39:15;5.55;;;1.25;;
37787;SDS011;23627;53.302;-6.362;2024-03-06T14:41:41;5.75;;;1.10;;
37787;SDS011;23627;53.302;-6.362;2024-03-06T14:44:08;4.65;;;1.08;;
37787;SDS011;23627;53.302;-6.362;2024-03-06T14:46:34;5.60;;;1.20;;
37787;SDS011;23627;53.302;-6.362;2024-03-06T14:48:59;8.07;;;1.30;;
37787;SDS011;23627;53.302;-6.362;2024-03-06T14:51:27;5.68;;;1.48;;